Time;durP1;ratioP1;P1;durP2;ratioP2;P2;SDS_P1;SDS_P2;PMS_P1;PMS_P2;Temp;Humidity;BMP_temperature;BMP_pressure;BME280_temperature;BME280_humidity;BME280_pressure;Samples;Min_cycle;Max_cycle;Signal;HPM_P1;HPM_P2
2022/11/13 00:01:27;;;;;;;26.92;18.80;;;;;;;6.23;100.00;102609.34;5033755;28;20101;-61
2022/11/13 00:03:53;;;;;;;26.42;18.45;;;;;;;6.24;100.00;102605.53;5032210;28;20143;-62
2022/11/13 00:06:18;;;;;;;26.02;18.85;;;;;;;6.24;100.00;102599.19;5033267;28;20477;-62
2022/11/13 00:08:45;;;;;;;27.02;18.02;;;;;;;6.26;100.00;102594.28;5033583;28;20037;-61
2022/11/13 00:11:13;;;;;;;25.08;18.23;;;;;;;6.25;100.00;102592.63;5033478;28;20477;-61
2022/11/13 00:13:39;;;;;;;27.55;18.80;;;;;;;6.26;100.00;102586.03;5033500;28;20109;-61
2022/11/13 00:16:08;;;;;;;26.77;18.40;;;;;;;6.25;100.00;102584.38;5033192;28;20498;-63
2022/11/13 00:18:35;;;;;;;26.30;17.65;;;;;;;6.31;100.00;102588.09;5033435;28;20032;-62
2022/11/13 00:21:05;;;;;;;25.92;17.60;;;;;;;6.27;100.00;102567.66;5032867;28;20079;-62
2022/11/13 00:23:33;;;;;;;25.42;17.90;;;;;;;6.33;100.00;102572.22;5032952;28;20361;-61
2022/11/13 00:26:21;;;;;;;25.90;17.55;;;;;;;6.35;100.00;102576.41;5033259;28;20112;-61
2022/11/13 00:28:54;;;;;;;26.05;18.20;;;;;;;6.30;100.00;102570.78;5033178;28;20036;-61
2022/11/13 00:31:19;;;;;;;26.15;18.08;;;;;;;6.29;100.00;102566.34;5033125;28;20026;-61
2022/11/13 00:33:45;;;;;;;26.23;17.58;;;;;;;6.27;100.00;102567.66;5033268;28;20060;-61
2022/11/13 00:36:14;;;;;;;25.48;17.40;;;;;;;6.24;100.00;102575.28;5032887;28;20025;-61
2022/11/13 00:38:40;;;;;;;24.40;17.88;;;;;;;6.20;100.00;102576.81;5032626;28;20382;-61
2022/11/13 00:41:05;;;;;;;27.67;19.02;;;;;;;6.16;100.00;102550.91;5032836;28;20028;-61
2022/11/13 00:43:30;;;;;;;28.02;20.77;;;;;;;6.15;100.00;102560.22;5032969;28;20070;-61
2022/11/13 00:45:56;;;;;;;29.10;20.98;;;;;;;6.12;100.00;102560.66;5031865;28;20029;-61
2022/11/13 00:48:22;;;;;;;27.63;21.33;;;;;;;6.08;100.00;102559.47;5032931;28;20036;-61
2022/11/13 00:50:48;;;;;;;28.50;20.92;;;;;;;6.04;100.00;102552.75;5032481;28;20033;-61
2022/11/13 00:53:13;;;;;;;28.10;19.77;;;;;;;6.00;100.00;102552.41;5028548;28;20564;-61
2022/11/13 00:55:39;;;;;;;28.33;20.27;;;;;;;5.94;100.00;102545.06;5032588;28;20044;-62
2022/11/13 00:58:04;;;;;;;26.05;19.55;;;;;;;5.92;100.00;102561.75;5032564;28;20033;-61
2022/11/13 01:00:30;;;;;;;26.88;19.48;;;;;;;5.86;100.00;102556.34;5032145;28;20060;-63
2022/11/13 01:02:59;;;;;;;25.40;19.13;;;;;;;5.83;100.00;102557.66;5032494;28;20026;-62
2022/11/13 01:05:25;;;;;;;28.67;19.13;;;;;;;5.80;100.00;102557.28;5032459;28;20117;-62
2022/11/13 01:07:51;;;;;;;26.15;19.45;;;;;;;5.75;100.00;102556.09;5032563;28;20067;-62
2022/11/13 01:10:16;;;;;;;25.30;19.23;;;;;;;5.70;100.00;102547.69;5032242;28;20104;-63
2022/11/13 01:12:42;;;;;;;26.45;19.58;;;;;;;5.68;100.00;102549.81;5032377;28;20028;-62
2022/11/13 01:15:07;;;;;;;26.83;20.25;;;;;;;5.68;100.00;102552.56;5032139;28;20030;-63
2022/11/13 01:17:33;;;;;;;27.02;20.67;;;;;;;5.65;100.00;102555.78;5032148;28;20420;-63
2022/11/13 01:19:58;;;;;;;26.90;20.05;;;;;;;5.61;100.00;102547.19;5032143;28;20029;-62
2022/11/13 01:22:24;;;;;;;27.27;20.08;;;;;;;5.61;100.00;102554.56;5044766;28;20044;-63
2022/11/13 01:24:49;;;;;;;27.85;20.17;;;;;;;5.60;100.00;102548.25;5051951;28;20425;-63
2022/11/13 01:27:14;;;;;;;29.15;21.25;;;;;;;5.56;100.00;102538.78;5051963;28;20130;-62
2022/11/13 01:29:40;;;;;;;27.35;20.13;;;;;;;5.58;100.00;102538.53;5051937;28;20132;-62
2022/11/13 01:32:06;;;;;;;28.10;19.80;;;;;;;5.53;100.00;102539.25;5051800;28;20491;-62
2022/11/13 01:34:31;;;;;;;26.25;19.05;;;;;;;5.50;100.00;102533.38;5051906;28;20033;-62
2022/11/13 01:36:57;;;;;;;25.58;18.35;;;;;;;5.44;100.00;102532.38;5051917;28;20044;-62
2022/11/13 01:39:22;;;;;;;27.88;18.98;;;;;;;5.40;100.00;102534.75;5051611;28;20045;-62
2022/11/13 01:41:47;;;;;;;27.15;19.05;;;;;;;5.39;100.00;102526.75;5051543;28;20024;-61
2022/11/13 01:44:16;;;;;;;26.85;19.20;;;;;;;5.36;100.00;102521.72;5051632;28;20029;-61
2022/11/13 01:46:44;;;;;;;26.50;19.45;;;;;;;5.35;100.00;102522.78;5050985;28;20147;-61
2022/11/13 01:49:09;;;;;;;27.10;18.73;;;;;;;5.33;100.00;102519.47;5047185;28;20032;-62
2022/11/13 01:51:54;;;;;;;26.80;18.70;;;;;;;5.32;100.00;102526.84;5051272;28;20055;-62
2022/11/13 01:54:24;;;;;;;26.38;18.67;;;;;;;5.27;100.00;102508.31;5051211;28;20028;-62
2022/11/13 01:56:50;;;;;;;26.80;18.65;;;;;;;5.34;100.00;102512.91;5051201;28;20040;-62
2022/11/13 01:59:19;;;;;;;25.70;17.83;;;;;;;5.30;100.00;102505.13;5051296;28;20025;-61
2022/11/13 02:01:44;;;;;;;26.05;18.60;;;;;;;5.34;100.00;102510.16;5051397;28;20041;-61
2022/11/13 02:04:09;;;;;;;24.48;17.85;;;;;;;5.33;100.00;102511.22;5051319;28;20079;-61
2022/11/13 02:06:40;;;;;;;26.45;18.58;;;;;;;5.24;100.00;102500.53;5051414;28;20078;-61
2022/11/13 02:09:07;;;;;;;25.58;18.73;;;;;;;5.26;100.00;102503.88;5049971;28;20025;-61
2022/11/13 02:11:32;;;;;;;25.65;18.17;;;;;;;5.24;100.00;102502.44;5051022;28;20060;-61
2022/11/13 02:13:59;;;;;;;28.15;18.67;;;;;;;5.21;100.00;102501.00;5050892;28;20063;-62
2022/11/13 02:16:25;;;;;;;27.40;18.33;;;;;;;5.20;100.00;102502.06;5051214;28;20021;-62
2022/11/13 02:18:51;;;;;;;24.75;17.98;;;;;;;5.17;100.00;102498.94;5049074;22;20394;-62
2022/11/13 02:21:31;;;;;;;25.00;17.85;;;;;;;5.08;100.00;102491.03;5030864;28;20036;-63
2022/11/13 02:24:22;;;;;;;24.90;17.58;;;;;;;5.05;100.00;102486.00;5030926;28;20051;-62
2022/11/13 02:26:49;;;;;;;25.67;17.83;;;;;;;5.10;100.00;102488.03;5030753;28;20036;-63
2022/11/13 02:29:14;;;;;;;24.25;17.95;;;;;;;5.09;100.00;102484.47;5030796;28;20033;-62
2022/11/13 02:31:40;;;;;;;26.50;19.73;;;;;;;5.11;100.00;102479.56;5030975;28;20445;-64
2022/11/13 02:34:05;;;;;;;26.10;17.77;;;;;;;5.13;100.00;102479.38;5029096;28;20025;-63
2022/11/13 02:36:30;;;;;;;26.23;17.73;;;;;;;5.13;100.00;102468.41;5030836;28;20508;-62
2022/11/13 02:39:00;;;;;;;24.48;17.40;;;;;;;5.13;100.00;102466.47;5030920;28;20116;-62
2022/11/13 02:41:26;;;;;;;24.88;17.95;;;;;;;5.18;100.00;102475.94;5030785;28;20096;-62
2022/11/13 02:43:51;;;;;;;25.20;17.77;;;;;;;5.21;100.00;102480.94;5027162;28;20440;-61
2022/11/13 02:46:16;;;;;;;24.80;17.10;;;;;;;5.22;100.00;102480.72;5030493;28;20034;-64
2022/11/13 02:48:42;;;;;;;23.95;17.20;;;;;;;5.23;100.00;102484.31;5030769;28;20540;-63
2022/11/13 02:51:07;;;;;;;24.50;17.00;;;;;;;5.25;100.00;102469.28;5029057;28;20044;-62
2022/11/13 02:53:32;;;;;;;24.58;17.38;;;;;;;5.25;100.00;102469.28;5030243;28;20498;-62
2022/11/13 02:55:58;;;;;;;23.35;17.40;;;;;;;5.26;100.00;102478.38;5030327;28;20067;-62
2022/11/13 02:58:23;;;;;;;24.02;17.02;;;;;;;5.24;100.00;102466.78;5030193;28;20026;-61
2022/11/13 03:00:48;;;;;;;23.27;16.73;;;;;;;5.26;100.00;102476.44;5030316;28;20071;-62
2022/11/13 03:03:13;;;;;;;25.10;17.27;;;;;;;5.25;100.00;102469.28;5030252;28;20021;-62
2022/11/13 03:05:39;;;;;;;24.25;16.30;;;;;;;5.25;100.00;102461.03;5030375;28;20105;-61
2022/11/13 03:08:05;;;;;;;24.75;16.77;;;;;;;5.34;100.00;102464.31;5028455;28;20470;-62
2022/11/13 03:10:30;;;;;;;24.20;16.45;;;;;;;5.36;100.00;102475.06;5030041;28;20029;-61
2022/11/13 03:12:57;;;;;;;23.25;16.70;;;;;;;5.35;100.00;102481.63;5030222;28;20037;-61
2022/11/13 03:15:23;;;;;;;24.15;16.75;;;;;;;5.34;100.00;102471.75;5030186;28;20025;-61
2022/11/13 03:17:48;;;;;;;23.02;16.70;;;;;;;5.40;100.00;102459.81;5029722;28;20448;-62
2022/11/13 03:20:13;;;;;;;23.48;16.13;;;;;;;5.40;100.00;102459.81;5029998;28;20029;-62
2022/11/13 03:22:39;;;;;;;23.88;16.50;;;;;;;5.42;100.00;102455.78;5030075;28;20117;-61
2022/11/13 03:25:05;;;;;;;24.33;16.25;;;;;;;5.42;100.00;102455.78;5030153;28;20543;-62
2022/11/13 03:27:31;;;;;;;24.42;16.75;;;;;;;5.43;100.00;102456.63;5030175;28;20033;-61
2022/11/13 03:29:56;;;;;;;23.52;16.38;;;;;;;5.43;100.00;102445.66;5030144;28;20501;-61
2022/11/13 03:32:22;;;;;;;23.75;16.25;;;;;;;5.43;100.00;102449.22;5029982;28;20037;-62
2022/11/13 03:34:47;;;;;;;24.35;15.73;;;;;;;5.46;100.00;102436.94;5030071;28;20132;-61
2022/11/13 03:37:12;;;;;;;23.85;16.42;;;;;;;5.45;100.00;102427.88;5030085;28;20109;-61
2022/11/13 03:39:37;;;;;;;23.88;16.60;;;;;;;5.50;100.00;102442.78;5024654;28;20465;-61
2022/11/13 03:42:03;;;;;;;24.35;16.77;;;;;;;5.52;100.00;102429.66;5029889;28;20071;-62
2022/11/13 03:44:28;;;;;;;22.75;16.02;;;;;;;5.53;100.00;102439.59;5029960;28;20084;-62
2022/11/13 03:46:53;;;;;;;24.15;16.15;;;;;;;5.54;100.00;102435.78;5030013;28;20040;-61
2022/11/13 03:49:19;;;;;;;23.85;15.82;;;;;;;5.57;100.00;102429.81;5027965;28;20041;-61
2022/11/13 03:51:44;;;;;;;23.67;16.45;;;;;;;5.62;100.00;102439.00;5029508;28;20037;-60
2022/11/13 03:54:09;;;;;;;23.30;16.25;;;;;;;5.64;100.00;102436.06;5029587;28;20030;-61
2022/11/13 03:56:34;;;;;;;24.40;16.15;;;;;;;5.66;100.00;102436.66;5029268;28;20386;-61
2022/11/13 03:59:00;;;;;;;24.65;16.08;;;;;;;5.66;100.00;102436.66;5028106;28;20040;-60
2022/11/13 04:01:25;;;;;;;24.27;16.00;;;;;;;5.67;100.00;102429.25;5029379;28;20138;-60
2022/11/13 04:03:50;;;;;;;23.40;16.15;;;;;;;5.67;100.00;102424.59;5029385;28;20044;-61
2022/11/13 04:06:16;;;;;;;24.67;16.65;;;;;;;5.66;100.00;102420.19;5029324;28;20430;-60
2022/11/13 04:08:41;;;;;;;23.23;16.23;;;;;;;5.66;100.00;102425.69;5029693;28;20038;-61
2022/11/13 04:11:11;;;;;;;23.75;15.95;;;;;;;5.65;100.00;102407.53;5029783;28;20504;-61
2022/11/13 04:13:36;;;;;;;24.08;16.52;;;;;;;5.66;100.00;102409.19;5028191;28;20324;-60
2022/11/13 04:16:02;;;;;;;23.25;16.05;;;;;;;5.65;100.00;102409.41;5029166;28;20040;-61
2022/11/13 04:18:28;;;;;;;24.48;15.95;;;;;;;5.65;100.00;102410.28;5027648;28;20132;-62
2022/11/13 04:21:04;;;;;;;25.40;16.73;;;;;;;5.62;100.00;102403.31;5031719;28;20108;-61
2022/11/13 04:23:29;;;;;;;24.58;16.48;;;;;;;5.61;100.00;102400.81;5033319;28;20460;-61
2022/11/13 04:25:55;;;;;;;24.42;17.35;;;;;;;5.61;100.00;102398.06;5031749;28;20045;-61
2022/11/13 04:28:20;;;;;;;25.23;16.67;;;;;;;5.61;100.00;102387.94;5033246;28;20037;-62
2022/11/13 04:30:46;;;;;;;24.45;16.58;;;;;;;5.63;100.00;102393.19;5032987;28;20032;-62
2022/11/13 04:33:11;;;;;;;25.38;17.10;;;;;;;5.61;100.00;102387.94;5033086;28;20119;-61
2022/11/13 04:35:36;;;;;;;24.67;16.50;;;;;;;5.57;100.00;102377.66;5028909;28;20041;-62
2022/11/13 04:38:02;;;;;;;23.63;16.35;;;;;;;5.61;100.00;102384.34;5033101;28;20409;-61
2022/11/13 04:40:27;;;;;;;23.77;16.15;;;;;;;5.60;100.00;102380.78;5033105;28;20041;-60
2022/11/13 04:42:52;;;;;;;23.80;16.98;;;;;;;5.61;100.00;102378.84;5033074;28;20526;-61
2022/11/13 04:45:22;;;;;;;24.67;16.83;;;;;;;5.53;100.00;102362.72;5032812;28;20033;-61
2022/11/13 04:47:48;;;;;;;24.55;16.83;;;;;;;5.57;100.00;102380.41;5032328;28;20045;-62
2022/11/13 04:50:14;;;;;;;24.52;16.92;;;;;;;5.54;100.00;102378.13;5032004;28;20147;-60
2022/11/13 04:52:40;;;;;;;25.10;16.98;;;;;;;5.48;100.00;102377.16;5032040;28;20499;-61
2022/11/13 04:55:07;;;;;;;24.63;17.40;;;;;;;5.42;100.00;102370.69;5032305;28;20033;-62
2022/11/13 04:57:33;;;;;;;24.58;16.88;;;;;;;5.40;100.00;102372.00;5032142;28;20032;-63
2022/11/13 04:59:58;;;;;;;24.73;17.05;;;;;;;5.34;100.00;102361.97;5032745;28;20097;-63
2022/11/13 05:02:24;;;;;;;24.08;17.45;;;;;;;5.33;100.00;102371.25;5032212;28;20442;-63
2022/11/13 05:04:49;;;;;;;24.52;16.88;;;;;;;5.34;100.00;102368.28;5032187;28;20068;-63
2022/11/13 05:07:15;;;;;;;24.83;17.15;;;;;;;5.36;100.00;102370.78;5032357;28;20484;-62
2022/11/13 05:09:40;;;;;;;23.15;16.40;;;;;;;5.34;100.00;102368.28;5032381;28;20087;-63
2022/11/13 05:12:06;;;;;;;23.30;16.88;;;;;;;5.33;100.00;102368.53;5032541;28;20390;-63
2022/11/13 05:14:36;;;;;;;25.98;17.65;;;;;;;5.34;100.00;102365.53;5032790;28;20030;-63
2022/11/13 05:17:02;;;;;;;24.65;16.52;;;;;;;5.29;100.00;102365.41;5032289;28;20511;-63
2022/11/13 05:19:27;;;;;;;24.60;16.95;;;;;;;5.29;100.00;102359.91;5032096;28;20144;-64
2022/11/13 05:21:52;;;;;;;23.92;16.75;;;;;;;5.25;100.00;102359.53;5031578;28;20064;-63
2022/11/13 05:24:18;;;;;;;25.50;17.38;;;;;;;5.23;100.00;102363.56;5031855;28;20057;-64
2022/11/13 05:26:43;;;;;;;23.45;16.55;;;;;;;5.19;100.00;102357.72;5030303;28;20026;-63
2022/11/13 05:29:08;;;;;;;24.35;16.85;;;;;;;5.18;100.00;102353.28;5031917;28;20520;-63
2022/11/13 05:31:34;;;;;;;23.67;16.17;;;;;;;5.13;100.00;102348.50;5027466;28;20029;-62
2022/11/13 05:34:02;;;;;;;24.15;17.17;;;;;;;5.04;100.00;102336.19;5031731;28;20105;-63
2022/11/13 05:36:27;;;;;;;25.08;17.15;;;;;;;5.07;100.00;102343.97;5031951;28;20421;-62
2022/11/13 05:38:53;;;;;;;22.55;16.48;;;;;;;5.03;100.00;102334.50;5031488;28;20032;-62
2022/11/13 05:41:20;;;;;;;24.25;17.50;;;;;;;4.94;100.00;102325.78;5031584;28;20177;-63
2022/11/13 05:43:46;;;;;;;23.95;16.77;;;;;;;4.96;100.00;102331.84;5031603;28;20080;-63
2022/11/13 05:46:20;;;;;;;22.98;16.92;;;;;;;4.88;100.00;102320.38;5031521;28;20049;-63
2022/11/13 05:48:46;;;;;;;24.35;16.70;;;;;;;4.92;100.00;102329.81;5031370;28;20060;-63
2022/11/13 05:51:14;;;;;;;23.58;16.52;;;;;;;4.87;100.00;102332.41;5031398;28;20176;-62
2022/11/13 05:53:40;;;;;;;23.90;17.35;;;;;;;4.81;100.00;102337.75;5031131;28;20029;-62
2022/11/13 05:56:10;;;;;;;24.88;17.33;;;;;;;4.68;100.00;102325.03;5031157;28;20078;-62
2022/11/13 05:58:36;;;;;;;24.85;17.00;;;;;;;4.72;100.00;102349.25;5031141;28;20060;-63
2022/11/13 06:01:38;;;;;;;24.45;16.73;;;;;;;4.68;100.00;102338.75;5030875;28;20124;-62
2022/11/13 06:04:05;;;;;;;23.50;16.98;;;;;;;4.53;100.00;102321.84;5017684;28;20049;-62
2022/11/13 06:06:31;;;;;;;23.38;16.35;;;;;;;4.55;100.00;102336.19;5030940;28;20032;-62
2022/11/13 06:08:59;;;;;;;24.88;16.85;;;;;;;4.49;100.00;102334.34;5030869;28;20025;-62
2022/11/13 06:11:26;;;;;;;24.13;16.75;;;;;;;4.44;100.00;102335.00;5030896;28;20057;-62
2022/11/13 06:13:53;;;;;;;25.23;16.92;;;;;;;4.34;100.00;102323.78;5031036;28;20108;-63
2022/11/13 06:16:29;;;;;;;24.63;16.35;;;;;;;4.32;100.00;102326.72;5031128;28;20037;-62
2022/11/13 06:18:57;;;;;;;24.45;17.20;;;;;;;4.21;100.00;102320.09;5030608;28;20131;-64
2022/11/13 06:21:25;;;;;;;23.58;16.88;;;;;;;4.18;100.00;102319.72;5030868;28;20021;-63
2022/11/13 06:23:51;;;;;;;26.80;17.13;;;;;;;4.15;100.00;102318.28;5030644;28;20095;-63
2022/11/13 06:26:19;;;;;;;22.45;15.98;;;;;;;4.08;100.00;102313.94;5026615;28;20096;-62
2022/11/13 06:28:45;;;;;;;23.25;16.77;;;;;;;4.03;100.00;102325.56;5030563;28;20042;-64
2022/11/13 06:31:13;;;;;;;25.73;16.75;;;;;;;3.90;100.00;102318.31;5030559;28;20118;-61
2022/11/13 06:33:40;;;;;;;23.13;16.20;;;;;;;3.90;100.00;102321.88;5030499;28;20030;-61
2022/11/13 06:36:10;;;;;;;26.55;17.30;;;;;;;3.85;100.00;102321.72;5030620;28;20033;-61
2022/11/13 06:38:37;;;;;;;23.55;17.08;;;;;;;3.81;100.00;102319.66;5030375;28;20125;-62
2022/11/13 06:41:03;;;;;;;24.13;17.05;;;;;;;3.77;100.00;102319.28;5030316;28;20449;-62
2022/11/13 06:43:29;;;;;;;23.65;16.70;;;;;;;3.75;100.00;102319.47;5029453;28;20033;-61
2022/11/13 06:45:56;;;;;;;23.42;16.63;;;;;;;3.69;100.00;102319.53;5029811;28;20140;-62
2022/11/13 06:48:22;;;;;;;22.70;16.80;;;;;;;3.65;100.00;102319.13;5023127;28;20030;-64
2022/11/13 06:50:48;;;;;;;24.42;16.75;;;;;;;3.62;100.00;102318.75;5010725;28;20398;-64
2022/11/13 06:53:13;;;;;;;24.23;17.48;;;;;;;3.54;100.00;102312.50;5010162;28;20034;-63
2022/11/13 06:55:46;;;;;;;23.70;15.85;;;;;;;3.55;100.00;102313.31;5010563;28;20033;-62
2022/11/13 06:58:12;;;;;;;24.10;17.58;;;;;;;3.52;100.00;102306.41;5010677;28;20110;-62
2022/11/13 07:00:38;;;;;;;24.70;17.75;;;;;;;3.51;100.00;102307.47;5010452;28;20122;-62
2022/11/13 07:03:04;;;;;;;24.35;17.70;;;;;;;3.49;100.00;102308.75;5010345;28;20042;-63
2022/11/13 07:05:30;;;;;;;25.60;17.33;;;;;;;3.47;100.00;102300.78;5010568;28;20026;-62
2022/11/13 07:07:55;;;;;;;25.55;16.88;;;;;;;3.44;100.00;102301.22;5010467;28;20791;-63
2022/11/13 07:10:20;;;;;;;25.13;18.67;;;;;;;3.42;100.00;102306.06;5010317;28;20038;-63
2022/11/13 07:12:46;;;;;;;25.83;18.33;;;;;;;3.40;100.00;102295.34;5010504;28;20120;-63
2022/11/13 07:15:11;;;;;;;27.63;18.88;;;;;;;3.40;100.00;102303.56;5010319;28;20026;-63
2022/11/13 07:17:36;;;;;;;26.77;19.23;;;;;;;3.41;100.00;102294.28;5008664;28;20501;-63
2022/11/13 07:20:01;;;;;;;25.95;18.85;;;;;;;3.41;100.00;102288.81;5010185;28;20046;-63
2022/11/13 07:22:29;;;;;;;25.17;18.33;;;;;;;3.41;100.00;102297.03;5005344;28;20057;-63
2022/11/13 07:24:54;;;;;;;26.17;17.98;;;;;;;3.41;100.00;102298.91;5010190;28;20121;-63
2022/11/13 07:27:19;;;;;;;24.98;17.73;;;;;;;3.42;100.00;102306.91;5010104;28;20136;-63
2022/11/13 07:29:45;;;;;;;24.73;17.35;;;;;;;3.41;100.00;102305.25;5009977;28;20073;-64
2022/11/13 07:32:10;;;;;;;24.77;17.05;;;;;;;3.41;100.00;102301.66;5010013;28;20048;-64
2022/11/13 07:34:35;;;;;;;25.52;18.13;;;;;;;3.41;100.00;102294.28;5010028;28;20099;-64
2022/11/13 07:37:01;;;;;;;25.33;17.73;;;;;;;3.43;100.00;102296.78;5009976;28;20034;-64
2022/11/13 07:39:27;;;;;;;25.02;17.13;;;;;;;3.46;100.00;102299.09;5010002;28;20143;-64
2022/11/13 07:41:52;;;;;;;24.90;17.27;;;;;;;3.50;100.00;102300.31;5009848;28;20081;-64
2022/11/13 07:44:17;;;;;;;25.20;17.30;;;;;;;3.52;100.00;102300.94;5009937;28;20048;-63
2022/11/13 07:46:42;;;;;;;27.42;18.20;;;;;;;3.56;100.00;102295.84;5010068;28;20030;-63
2022/11/13 07:49:08;;;;;;;24.30;17.35;;;;;;;3.60;100.00;102294.34;5010107;28;20619;-63
2022/11/13 07:51:33;;;;;;;23.58;16.63;;;;;;;3.67;100.00;102292.38;5010061;28;20072;-64
2022/11/13 07:53:58;;;;;;;24.38;17.40;;;;;;;3.75;100.00;102294.00;5010862;28;20522;-63
2022/11/13 07:56:24;;;;;;;25.55;17.83;;;;;;;3.82;100.00;102281.09;5013856;28;20075;-63
2022/11/13 07:58:50;;;;;;;25.23;17.85;;;;;;;3.93;100.00;102287.72;5013769;28;20454;-64
2022/11/13 08:01:15;;;;;;;25.55;17.95;;;;;;;4.08;100.00;102283.81;5013594;28;20030;-63
2022/11/13 08:03:40;;;;;;;26.95;18.67;;;;;;;4.19;100.00;102292.09;5013648;28;20022;-64
2022/11/13 08:06:06;;;;;;;25.52;17.58;;;;;;;4.30;100.00;102289.66;5013205;28;20732;-64
2022/11/13 08:08:32;;;;;;;25.05;17.83;;;;;;;4.38;100.00;102289.34;5013587;28;20540;-63
2022/11/13 08:10:58;;;;;;;25.05;17.65;;;;;;;4.45;100.00;102294.75;5013609;28;20477;-63
2022/11/13 08:13:23;;;;;;;27.30;18.40;;;;;;;4.50;100.00;102284.78;5012152;28;20474;-64
2022/11/13 08:15:49;;;;;;;25.95;18.25;;;;;;;4.56;100.00;102276.69;5013828;28;20034;-64
2022/11/13 08:18:14;;;;;;;25.13;17.65;;;;;;;4.61;100.00;102277.69;5013460;28;20057;-63
2022/11/13 08:20:39;;;;;;;25.75;18.17;;;;;;;4.69;100.00;102276.53;5013462;28;20033;-62
2022/11/13 08:23:05;;;;;;;25.67;18.00;;;;;;;4.75;100.00;102288.50;5011027;28;20062;-64
2022/11/13 08:25:32;;;;;;;25.13;18.15;;;;;;;4.82;100.00;102283.75;5011827;28;20061;-64
2022/11/13 08:27:58;;;;;;;24.58;18.40;;;;;;;4.90;100.00;102286.16;5013343;28;20053;-63
2022/11/13 08:30:25;;;;;;;24.70;18.38;;;;;;;5.00;100.00;102285.63;5011730;28;20030;-63
2022/11/13 08:32:51;;;;;;;26.52;18.70;;;;;;;5.09;100.00;102280.63;5013123;28;20030;-63
2022/11/13 08:35:17;;;;;;;27.65;18.58;;;;;;;5.16;100.00;102267.63;5013049;28;20076;-63
2022/11/13 08:37:43;;;;;;;25.23;18.00;;;;;;;5.20;100.00;102262.50;5030717;28;20037;-64
2022/11/13 08:40:09;;;;;;;25.90;17.75;;;;;;;5.33;100.00;102267.81;5032714;28;20029;-63
2022/11/13 08:42:34;;;;;;;26.08;17.65;;;;;;;5.42;100.00;102271.88;5032540;28;20053;-63
2022/11/13 08:44:59;;;;;;;25.60;17.35;;;;;;;5.52;100.00;102260.31;5032552;28;20055;-63
2022/11/13 08:47:27;;;;;;;24.10;17.40;;;;;;;5.55;100.00;102261.75;5032468;28;20026;-65
2022/11/13 08:49:53;;;;;;;25.67;17.38;;;;;;;5.63;100.00;102259.47;5032614;28;20041;-64
2022/11/13 08:52:18;;;;;;;26.92;17.40;;;;;;;5.76;100.00;102258.41;5032467;28;20034;-64
2022/11/13 08:54:43;;;;;;;23.98;16.33;;;;;;;5.85;100.00;102263.56;5032453;28;20514;-64
2022/11/13 08:57:08;;;;;;;24.48;16.00;;;;;;;5.94;100.00;102262.13;5032429;28;20022;-64
2022/11/13 08:59:34;;;;;;;23.52;15.65;;;;;;;6.04;100.00;102253.28;5032533;28;20033;-62
2022/11/13 09:01:59;;;;;;;22.30;14.57;;;;;;;6.11;100.00;102251.25;5030911;28;20566;-63
2022/11/13 09:04:25;;;;;;;22.92;15.13;;;;;;;6.18;100.00;102253.88;5032256;28;20021;-62
2022/11/13 09:06:51;;;;;;;22.58;13.80;;;;;;;6.23;100.00;102254.00;5031629;28;20604;-63
2022/11/13 09:09:17;;;;;;;21.90;14.40;;;;;;;6.30;99.90;102256.59;5032179;28;20068;-63
2022/11/13 09:11:42;;;;;;;21.00;13.63;;;;;;;6.35;100.00;102262.19;5032188;28;20029;-62
2022/11/13 09:14:08;;;;;;;23.45;13.77;;;;;;;6.38;99.28;102253.44;5031900;28;20032;-63
2022/11/13 09:16:33;;;;;;;22.55;14.02;;;;;;;6.46;98.18;102258.59;5032346;28;20033;-62
2022/11/13 09:18:58;;;;;;;21.05;13.35;;;;;;;6.53;97.96;102245.53;5027850;28;20537;-62
2022/11/13 09:21:24;;;;;;;21.58;14.15;;;;;;;6.60;96.80;102242.66;5031949;28;20037;-63
2022/11/13 09:23:49;;;;;;;22.08;13.55;;;;;;;6.65;97.02;102241.91;5032164;28;20029;-61
2022/11/13 09:26:15;;;;;;;23.40;15.27;;;;;;;6.72;96.23;102243.41;5032447;28;20034;-63
2022/11/13 09:28:40;;;;;;;21.23;13.82;;;;;;;6.81;95.71;102237.50;5032598;28;20113;-60
2022/11/13 09:31:05;;;;;;;22.00;13.38;;;;;;;6.86;95.61;102240.38;5031203;28;20017;-59
2022/11/13 09:33:31;;;;;;;22.08;13.55;;;;;;;6.92;94.85;102242.13;5032429;28;20477;-60
2022/11/13 09:35:57;;;;;;;22.52;13.93;;;;;;;7.00;94.28;102230.72;5032504;28;20029;-66
2022/11/13 09:38:22;;;;;;;23.05;14.32;;;;;;;7.11;92.69;102228.16;5032177;28;20040;-63
2022/11/13 09:40:59;;;;;;;28.92;17.60;;;;;;;7.20;93.23;102223.09;5032036;28;20136;-62
2022/11/13 09:43:47;;;;;;;22.30;13.73;;;;;;;7.37;92.18;102234.94;5032254;28;20087;-62
2022/11/13 09:46:20;;;;;;;21.88;14.23;;;;;;;7.44;91.97;102226.50;5031385;28;20052;-62
2022/11/13 09:48:51;;;;;;;22.13;13.93;;;;;;;7.49;91.79;102230.19;5032251;28;20053;-62
2022/11/13 09:51:28;;;;;;;21.08;13.63;;;;;;;7.62;91.51;102231.75;5032151;28;20029;-62
2022/11/13 09:53:53;;;;;;;22.45;14.75;;;;;;;7.75;90.83;102233.31;5032220;28;20029;-61
2022/11/13 09:56:34;;;;;;;22.00;14.23;;;;;;;7.79;91.01;102228.13;5031951;28;20060;-62
2022/11/13 09:59:25;;;;;;;21.50;13.60;;;;;;;7.90;91.33;102227.19;5031992;28;20037;-62
2022/11/13 10:02:20;;;;;;;20.15;13.10;;;;;;;8.08;89.47;102225.22;5031921;28;20036;-61
2022/11/13 10:04:58;;;;;;;;;;;;;;;8.19;92.99;102223.41;5032200;28;20473;-62
2022/11/13 10:07:53;;;;;;;21.52;13.27;;;;;;;8.27;89.34;102218.31;5031626;28;20364;-62
2022/11/13 10:10:21;;;;;;;;;;;;;;;8.32;91.63;102217.53;4995333;28;20513;-61
2022/11/13 10:12:50;;;;;;;20.77;12.60;;;;;;;8.40;87.34;102205.22;5001679;28;19913;-62
2022/11/13 10:15:16;;;;;;;20.60;12.88;;;;;;;8.55;88.44;102218.38;4995443;28;20174;-63
2022/11/13 10:17:51;;;;;;;21.90;12.65;;;;;;;8.58;85.19;102218.69;4998162;28;20057;-61
2022/11/13 10:20:28;;;;;;;20.98;12.18;;;;;;;8.61;84.82;102206.31;5022960;28;20500;-61
2022/11/13 10:22:59;;;;;;;20.08;12.85;;;;;;;8.72;85.75;102218.28;5031308;28;20026;-63
2022/11/13 10:25:27;;;;;;;20.15;12.27;;;;;;;8.77;85.92;102211.97;5030821;28;20129;-62
2022/11/13 10:27:56;;;;;;;20.00;11.85;;;;;;;8.75;88.36;102206.72;5030781;28;20025;-64
2022/11/13 10:30:21;;;;;;;19.52;12.43;;;;;;;8.79;88.88;102215.31;5030987;28;20029;-61
2022/11/13 10:32:47;;;;;;;20.02;12.43;;;;;;;8.85;87.36;102212.34;5030907;28;20495;-62
2022/11/13 10:35:36;;;;;;;19.30;11.68;;;;;;;8.86;86.48;102211.25;5030971;28;20025;-61
2022/11/13 10:38:06;;;;;;;19.98;11.98;;;;;;;8.96;81.87;102213.28;5030885;28;20396;-62
2022/11/13 10:40:37;;;;;;;20.92;13.13;;;;;;;9.15;79.67;102212.88;5011146;28;20033;-62
2022/11/13 10:43:14;;;;;;;19.92;11.18;;;;;;;9.37;80.96;102204.50;5009695;28;20124;-62
2022/11/13 10:45:41;;;;;;;19.10;11.57;;;;;;;9.42;80.48;102190.75;5009455;28;20053;-62
2022/11/13 10:48:19;;;;;;;23.35;12.13;;;;;;;9.44;83.34;102194.09;5009606;28;20060;-62
2022/11/13 10:50:53;;;;;;;20.25;11.43;;;;;;;9.36;83.68;102178.81;5009787;28;20029;-62
2022/11/13 10:53:19;;;;;;;;;;;;;;;9.47;86.31;102187.19;5010160;28;20037;-62
2022/11/13 10:55:45;;;;;;;19.17;11.18;;;;;;;9.56;81.81;102173.69;5009749;28;19917;-60
2022/11/13 10:58:15;;;;;;;18.88;11.25;;;;;;;9.60;79.33;102169.31;5007183;28;20022;-62
2022/11/13 11:00:43;;;;;;;19.33;11.27;;;;;;;9.71;78.73;102175.72;5001459;28;20054;-61
2022/11/13 11:03:14;;;;;;;18.75;11.15;;;;;;;9.81;79.83;102173.84;4989964;28;20038;-61
2022/11/13 11:05:51;;;;;;;18.90;10.93;;;;;;;9.91;78.54;102167.53;4990060;28;20120;-61
2022/11/13 11:08:17;;;;;;;19.52;11.02;;;;;;;10.00;77.89;102156.81;4989789;28;20069;-61
2022/11/13 11:13:37;;;;;;;19.45;11.00;;;;;;;10.17;78.01;102162.09;4989858;28;20085;-61
2022/11/13 11:16:04;;;;;;;18.50;10.85;;;;;;;10.23;77.70;102149.97;4989614;28;20054;-61